PWSweather.com
Personal Weather Stations
Station Observations
KVAGLENALL
West Henrico, Glen Allen, VA 23060-6503

West HenricoGlen Allen, VA 23060-6503

Lat: 37.6554, Lon: -77.5693

Elevation: 273

Station Type: Davis Vantage Pro II

www.glenallenweather.com

High Low Average
Temperature 49.6°F9.8°C 42.8°F6.0°C 45.9°F7.7°C
Dew Point 46.2°F7.9°C 39.4°F4.1°C 42.3°F5.7°C
Winds 4.0 mph 6.4 kmh Calm Calm 1.0 mph E1.6 kmh E
Wind Gusts 6.1 mph9.8 kmh -- 2.0 mph3.2 kmh
Humidity 96% 69% 88%
Pressure 30.44 in1030.8 mb 30.22 in1023.4 mb -
Precipitation 0.00 in0.0 mm - -
Hour Temp Dew Point Humidity Winds Wind Gusts Pressure Precip Precip Rate Daily Precip Total
12:30 AM 47.1°F8.4°C 46.1°F7.8°C 96% 1.0 mph S1.6 kmh S 2.0 mph3.2 kmh 30.20 in1022.7 mb 0.00 in0.0 mm 0.00 in0.0 mm 0.00 in0.0 mm
01:30 AM 47.4°F8.6°C 46.1°F7.8°C 95% Calm Calm -- 30.22 in1023.4 mb 0.00 in0.0 mm 0.00 in0.0 mm 0.00 in0.0 mm
02:30 AM 47.5°F8.6°C 46.2°F7.9°C 95% Calm Calm -- 30.23 in1023.7 mb 0.00 in0.0 mm 0.00 in0.0 mm 0.00 in0.0 mm
03:30 AM 46.8°F8.2°C 45.8°F7.7°C 96% Calm Calm -- 30.24 in1024.0 mb 0.00 in0.0 mm 0.00 in0.0 mm 0.00 in0.0 mm
04:30 AM 46.5°F8.1°C 45.5°F7.5°C 96% 2.0 mph S3.2 kmh S 2.0 mph3.2 kmh 30.25 in1024.4 mb 0.00 in0.0 mm 0.00 in0.0 mm 0.00 in0.0 mm
05:30 AM 46.5°F8.1°C 43.8°F6.6°C 90% 2.0 mph E3.2 kmh E 4.0 mph6.4 kmh 30.25 in1024.4 mb 0.03 in0.8 mm 0.00 in0.0 mm 0.03 in0.8 mm
06:30 AM 44.8°F7.1°C 42.1°F5.6°C 90% 1.0 mph E1.6 kmh E 4.0 mph6.4 kmh 30.27 in1025.1 mb 0.03 in0.8 mm 0.00 in0.0 mm 0.03 in0.8 mm
07:30 AM 43.7°F6.5°C 41.6°F5.3°C 92% 1.0 mph E1.6 kmh E 1.0 mph1.6 kmh 30.30 in1026.1 mb 0.01 in0.3 mm 0.00 in0.0 mm 0.03 in0.8 mm
08:30 AM 42.9°F6.1°C 41.0°F5.0°C 93% 3.0 mph NE4.8 kmh NE 3.0 mph4.8 kmh 30.34 in1027.4 mb 0.11 in2.8 mm 0.00 in0.0 mm 0.13 in3.3 mm
09:30 AM 42.8°F6.0°C 41.2°F5.1°C 94% Calm Calm 2.0 mph3.2 kmh 30.35 in1027.8 mb 0.06 in1.5 mm 0.00 in0.0 mm 0.13 in3.3 mm
10:30 AM 44.3°F6.8°C 41.9°F5.5°C 91% 1.0 mph E1.6 kmh E 1.0 mph1.6 kmh 30.38 in1028.8 mb 0.00 in0.0 mm 0.00 in0.0 mm 0.13 in3.3 mm
11:30 AM 45.2°F7.3°C 42.2°F5.7°C 89% 2.0 mph ENE3.2 kmh ENE 3.0 mph4.8 kmh 30.39 in1029.1 mb 0.01 in0.3 mm 0.00 in0.0 mm 0.14 in3.6 mm
12:30 PM 47.3°F8.5°C 42.4°F5.8°C 83% 3.0 mph ENE4.8 kmh ENE 3.0 mph4.8 kmh 30.40 in1029.5 mb 0.00 in0.0 mm 0.00 in0.0 mm 0.14 in3.6 mm
01:30 PM 48.1°F8.9°C 42.3°F5.7°C 80% 3.0 mph NE4.8 kmh NE 4.0 mph6.4 kmh 30.38 in1028.8 mb 0.00 in0.0 mm 0.00 in0.0 mm 0.14 in3.6 mm
02:30 PM 49.6°F9.8°C 40.2°F4.6°C 70% 4.0 mph E6.4 kmh E 6.1 mph9.8 kmh 30.37 in1028.4 mb 0.00 in0.0 mm 0.00 in0.0 mm 0.14 in3.6 mm
03:30 PM 49.1°F9.5°C 39.4°F4.1°C 69% 2.0 mph E3.2 kmh E 4.0 mph6.4 kmh 30.36 in1028.1 mb 0.00 in0.0 mm 0.00 in0.0 mm 0.14 in3.6 mm
04:30 PM 48.8°F9.3°C 40.2°F4.6°C 72% 2.0 mph NE3.2 kmh NE 4.0 mph6.4 kmh 30.36 in1028.1 mb 0.00 in0.0 mm 0.00 in0.0 mm 0.14 in3.6 mm
05:30 PM 48.3°F9.1°C 40.1°F4.5°C 73% 1.0 mph NE1.6 kmh NE 3.0 mph4.8 kmh 30.37 in1028.4 mb 0.00 in0.0 mm 0.00 in0.0 mm 0.14 in3.6 mm
06:30 PM 47.2°F8.4°C 41.1°F5.1°C 79% Calm Calm -- 30.40 in1029.5 mb 0.00 in0.0 mm 0.00 in0.0 mm 0.14 in3.6 mm
07:30 PM 45.6°F7.6°C 42.0°F5.6°C 87% Calm Calm -- 30.42 in1030.1 mb 0.01 in0.3 mm 0.00 in0.0 mm 0.15 in3.8 mm
08:30 PM 44.8°F7.1°C 42.9°F6.1°C 93% Calm Calm 1.0 mph1.6 kmh 30.40 in1029.5 mb 0.04 in1.0 mm 0.00 in0.0 mm 0.18 in4.6 mm
09:30 PM 43.9°F6.6°C 42.3°F5.7°C 94% 1.0 mph NE1.6 kmh NE 1.0 mph1.6 kmh 30.42 in1030.1 mb 0.05 in1.3 mm 0.00 in0.0 mm 0.19 in4.8 mm
10:30 PM 43.4°F6.3°C 41.8°F5.4°C 94% Calm Calm -- 30.42 in1030.1 mb 0.02 in0.5 mm 0.00 in0.0 mm 0.19 in4.8 mm
11:30 PM 43.0°F6.1°C 41.7°F5.4°C 95% Calm Calm -- 30.44 in1030.8 mb 0.01 in0.3 mm 0.00 in0.0 mm 0.19 in4.8 mm